Time;durP1;ratioP1;P1;durP2;ratioP2;P2;SDS_P1;SDS_P2;PMS_P1;PMS_P2;Temp;Humidity;BMP_temperature;BMP_pressure;BME280_temperature;BME280_humidity;BME280_pressure;Samples;Min_cycle;Max_cycle;Signal;HPM_P1;HPM_P2
2021/08/28 00:00:04;;;;;;;15.32;5.78;;;14.90;99.90;;;;;;6117165;23;20021;-69
2021/08/28 00:02:30;;;;;;;14.15;5.78;;;14.90;99.90;;;;;;6123548;23;20017;-69
2021/08/28 00:04:56;;;;;;;14.30;6.68;;;14.90;99.90;;;;;;6118269;23;20017;-69
2021/08/28 00:07:21;;;;;;;16.20;7.07;;;14.90;99.90;;;;;;6050924;23;20021;-69
2021/08/28 00:09:47;;;;;;;15.57;6.75;;;14.90;99.90;;;;;;6098612;23;20021;-69
2021/08/28 00:12:13;;;;;;;13.43;6.30;;;14.90;99.90;;;;;;6117296;23;20032;-69
2021/08/28 00:14:39;;;;;;;14.40;7.25;;;14.90;99.90;;;;;;6123204;23;20112;-69
2021/08/28 00:17:05;;;;;;;14.25;7.15;;;15.00;99.90;;;;;;6141947;23;20028;-69
2021/08/28 00:19:31;;;;;;;15.90;7.43;;;15.00;99.90;;;;;;6120856;23;20032;-69
2021/08/28 00:21:56;;;;;;;15.20;6.65;;;15.00;99.90;;;;;;6097469;23;20021;-69
2021/08/28 00:24:22;;;;;;;15.55;6.47;;;15.00;99.90;;;;;;6070766;23;20025;-70
2021/08/28 00:26:49;;;;;;;13.15;6.35;;;15.00;99.90;;;;;;6072441;23;20025;-69
2021/08/28 00:29:15;;;;;;;16.55;6.60;;;15.00;99.90;;;;;;6096524;23;20516;-69
2021/08/28 00:31:40;;;;;;;17.15;6.45;;;15.00;99.90;;;;;;6098624;23;20029;-69
2021/08/28 00:34:07;;;;;;;14.00;6.38;;;15.00;99.90;;;;;;6120158;23;20059;-69
2021/08/28 00:36:36;;;;;;;13.55;6.40;;;15.00;99.90;;;;;;6096997;23;20021;-69
2021/08/28 00:39:08;;;;;;;16.80;6.43;;;15.00;99.90;;;;;;6120837;23;20021;-69
2021/08/28 00:41:36;;;;;;;18.42;6.40;;;15.00;99.90;;;;;;6122758;23;20029;-69
2021/08/28 00:44:04;;;;;;;16.65;6.53;;;15.00;99.90;;;;;;6119187;23;20506;-69
2021/08/28 00:46:30;;;;;;;14.48;6.20;;;15.00;99.90;;;;;;6119697;23;20451;-69
2021/08/28 00:48:56;;;;;;;18.63;7.18;;;15.00;99.90;;;;;;6073030;23;20029;-68
2021/08/28 00:51:22;;;;;;;16.80;6.75;;;15.00;99.90;;;;;;6096584;23;20100;-69
2021/08/28 00:53:48;;;;;;;17.25;8.00;;;15.10;99.90;;;;;;6120841;23;20116;-67
2021/08/28 00:56:14;;;;;;;20.08;7.57;;;15.20;99.90;;;;;;6096922;23;20029;-68
2021/08/28 00:58:41;;;;;;;13.20;7.28;;;15.20;99.90;;;;;;6121839;23;20069;-67
2021/08/28 01:01:12;;;;;;;17.83;7.43;;;15.20;99.90;;;;;;6072669;23;20477;-67
2021/08/28 01:03:42;;;;;;;14.43;7.65;;;15.20;99.90;;;;;;6096273;23;20025;-77
2021/08/28 01:06:26;;;;;;;;;;;15.20;99.90;;;;;;6098037;23;20053;-77
2021/08/28 01:09:07;;;;;;;17.98;7.93;;;15.30;99.90;;;;;;6093358;23;19948;-77
2021/08/28 01:11:51;;;;;;;18.45;8.30;;;15.20;99.90;;;;;;6121481;23;20025;-67
2021/08/28 01:14:23;;;;;;;15.75;8.45;;;15.30;99.90;;;;;;6122429;23;20088;-67
2021/08/28 01:17:04;;;;;;;16.95;8.43;;;15.40;99.90;;;;;;6119907;23;20028;-67
2021/08/28 01:19:58;;;;;;;21.05;9.20;;;15.40;99.90;;;;;;6098037;23;20112;-68
2021/08/28 01:22:25;;;;;;;14.75;7.10;;;15.40;99.90;;;;;;6071830;23;20394;-68
2021/08/28 01:24:54;;;;;;;13.70;8.20;;;15.40;99.90;;;;;;6073130;23;20026;-67
2021/08/28 01:27:35;;;;;;;17.57;8.33;;;15.40;99.90;;;;;;6096916;23;20099;-67
2021/08/28 01:30:06;;;;;;;11.82;7.40;;;15.40;99.90;;;;;;6120739;23;20049;-67
2021/08/28 01:32:32;;;;;;;15.95;8.50;;;15.40;99.90;;;;;;6098275;23;20577;-67
2021/08/28 01:34:59;;;;;;;21.92;8.80;;;15.40;99.90;;;;;;6121038;23;20056;-67
2021/08/28 01:37:25;;;;;;;13.35;6.70;;;15.50;99.90;;;;;;6121923;23;20053;-67
2021/08/28 01:39:54;;;;;;;12.45;8.48;;;15.40;99.90;;;;;;6092833;23;20022;-68
2021/08/28 01:42:21;;;;;;;20.08;9.57;;;15.40;99.90;;;;;;6097662;23;20026;-67
2021/08/28 01:44:49;;;;;;;13.07;7.72;;;15.40;99.90;;;;;;6115737;23;20100;-68
2021/08/28 01:47:19;;;;;;;22.55;9.43;;;15.50;99.90;;;;;;6094487;23;20088;-68
2021/08/28 01:49:46;;;;;;;19.48;8.57;;;15.40;99.90;;;;;;6096816;23;20025;-69
2021/08/28 01:52:14;;;;;;;15.10;8.80;;;15.40;99.90;;;;;;6121862;23;20452;-68
2021/08/28 01:54:40;;;;;;;16.85;8.27;;;15.50;99.90;;;;;;6095193;23;20033;-68
2021/08/28 01:57:08;;;;;;;13.90;7.82;;;15.50;99.90;;;;;;6121493;23;20025;-68
2021/08/28 01:59:34;;;;;;;16.92;8.18;;;15.50;99.90;;;;;;6118040;23;20029;-68
2021/08/28 02:02:00;;;;;;;17.60;8.15;;;15.50;99.90;;;;;;6097046;23;20084;-68
2021/08/28 02:04:27;;;;;;;19.45;8.20;;;15.50;99.90;;;;;;6095669;23;20021;-68
2021/08/28 02:07:15;;;;;;;17.42;8.20;;;15.50;99.90;;;;;;6120917;23;20048;-68
2021/08/28 02:09:51;;;;;;;15.98;8.35;;;15.50;99.90;;;;;;6111710;23;20410;-67
2021/08/28 02:12:42;;;;;;;16.38;8.30;;;15.40;99.90;;;;;;6123238;23;20026;-67
2021/08/28 02:15:20;;;;;;;15.60;8.43;;;15.40;99.90;;;;;;6121749;23;20026;-67
2021/08/28 02:17:52;;;;;;;17.40;8.38;;;15.40;99.90;;;;;;6121913;23;20032;-68
2021/08/28 02:20:20;;;;;;;15.85;8.82;;;15.30;99.90;;;;;;6120862;23;20153;-68
2021/08/28 02:22:48;;;;;;;16.17;9.13;;;15.30;99.90;;;;;;6123968;23;20025;-68
2021/08/28 02:25:36;;;;;;;18.15;9.32;;;15.30;99.90;;;;;;6122996;23;20492;-68
2021/08/28 02:28:06;;;;;;;14.95;8.50;;;15.30;99.90;;;;;;6123944;23;20131;-68
2021/08/28 02:30:34;;;;;;;11.80;7.90;;;15.30;99.90;;;;;;6100922;23;20112;-68
2021/08/28 02:33:04;;;;;;;17.10;8.13;;;15.30;99.90;;;;;;6123052;23;20104;-68
2021/08/28 02:35:32;;;;;;;15.23;8.40;;;15.30;99.90;;;;;;6098382;23;20702;-68
2021/08/28 02:37:59;;;;;;;12.40;7.35;;;15.40;99.90;;;;;;6096177;23;20028;-68
2021/08/28 02:40:29;;;;;;;14.40;7.75;;;15.30;99.90;;;;;;6120585;23;20022;-69
2021/08/28 02:42:56;;;;;;;15.20;8.70;;;15.30;99.90;;;;;;6099847;23;20028;-69
2021/08/28 02:45:26;;;;;;;19.42;8.30;;;15.30;99.90;;;;;;6121802;23;20036;-70
2021/08/28 02:47:52;;;;;;;15.63;8.45;;;15.40;99.90;;;;;;6123161;23;20454;-69
2021/08/28 02:50:21;;;;;;;15.02;8.10;;;15.40;99.90;;;;;;6099319;23;20481;-69
2021/08/28 02:52:49;;;;;;;16.77;9.60;;;15.40;99.90;;;;;;6098434;23;20153;-68
2021/08/28 02:55:15;;;;;;;14.25;7.70;;;15.40;99.90;;;;;;6099003;23;20018;-70
2021/08/28 02:57:45;;;;;;;12.40;7.25;;;15.40;99.90;;;;;;6098994;23;20025;-69
2021/08/28 03:00:12;;;;;;;15.30;6.35;;;15.40;99.90;;;;;;6097770;23;20030;-69
2021/08/28 03:02:38;;;;;;;14.85;6.45;;;15.40;99.90;;;;;;6122221;23;20053;-69
2021/08/28 03:05:11;;;;;;;11.43;5.75;;;15.40;99.90;;;;;;6122071;23;20112;-69
2021/08/28 03:07:42;;;;;;;12.10;6.50;;;15.40;99.90;;;;;;6122436;23;20104;-69
2021/08/28 03:10:09;;;;;;;11.68;6.63;;;15.40;99.90;;;;;;6097242;23;20021;-69
2021/08/28 03:12:36;;;;;;;13.82;6.80;;;15.40;99.90;;;;;;6123667;23;20053;-69
2021/08/28 03:15:03;;;;;;;15.38;7.40;;;15.40;99.90;;;;;;6123132;23;20355;-69
2021/08/28 03:17:30;;;;;;;11.85;6.65;;;15.30;99.90;;;;;;6123458;23;20025;-69
2021/08/28 03:19:58;;;;;;;15.45;6.90;;;15.30;99.90;;;;;;6097296;23;20156;-69
2021/08/28 03:22:25;;;;;;;13.15;6.22;;;15.30;99.90;;;;;;6121663;23;20142;-69
2021/08/28 03:24:52;;;;;;;16.08;8.05;;;15.40;99.90;;;;;;6096919;23;20030;-69
2021/08/28 03:27:20;;;;;;;10.98;6.78;;;15.40;99.90;;;;;;6123468;23;20018;-79
2021/08/28 03:29:47;;;;;;;13.05;6.40;;;15.30;99.90;;;;;;6122955;23;20088;-79
2021/08/28 03:32:14;;;;;;;10.73;6.32;;;15.40;99.90;;;;;;6096961;23;20372;-79
2021/08/28 03:34:40;;;;;;;15.43;7.65;;;15.40;99.90;;;;;;6122935;23;20084;-69
2021/08/28 03:37:07;;;;;;;14.70;6.93;;;15.40;99.90;;;;;;6119175;23;20745;-69
2021/08/28 03:39:33;;;;;;;15.45;7.70;;;15.30;99.90;;;;;;6098321;23;20083;-70
2021/08/28 03:42:01;;;;;;;15.55;8.27;;;15.30;99.90;;;;;;6122917;23;20025;-70
2021/08/28 03:44:27;;;;;;;11.80;7.50;;;15.40;99.90;;;;;;6124199;23;20021;-69
2021/08/28 03:46:53;;;;;;;17.83;7.28;;;15.40;99.90;;;;;;6098129;23;20033;-69
2021/08/28 03:49:19;;;;;;;16.90;8.63;;;15.30;99.90;;;;;;6122828;23;20026;-69
2021/08/28 03:51:51;;;;;;;15.20;8.20;;;15.40;99.90;;;;;;6099063;23;20348;-69
2021/08/28 03:54:17;;;;;;;17.02;8.65;;;15.40;99.90;;;;;;6098141;23;20053;-70
2021/08/28 03:56:43;;;;;;;21.02;8.90;;;15.30;99.90;;;;;;6123082;23;20033;-70
2021/08/28 03:59:08;;;;;;;13.05;7.97;;;15.30;99.90;;;;;;6094662;23;20498;-70
2021/08/28 04:01:34;;;;;;;18.85;8.85;;;15.30;99.90;;;;;;6122276;23;20018;-70
2021/08/28 04:04:00;;;;;;;14.63;8.18;;;15.40;99.90;;;;;;6095729;23;20025;-70
2021/08/28 04:06:26;;;;;;;14.60;8.27;;;15.40;99.90;;;;;;6120703;23;20357;-69
2021/08/28 04:08:52;;;;;;;16.52;8.63;;;15.40;99.90;;;;;;6122024;23;20025;-69
2021/08/28 04:11:17;;;;;;;13.73;8.60;;;15.40;99.90;;;;;;6121223;23;20018;-69
2021/08/28 04:13:43;;;;;;;16.98;10.23;;;15.40;99.90;;;;;;6098665;23;20437;-70
2021/08/28 04:16:09;;;;;;;20.65;10.20;;;15.40;99.90;;;;;;6096013;23;20029;-70
2021/08/28 04:18:35;;;;;;;19.23;9.20;;;15.40;99.90;;;;;;6095942;23;20485;-69
2021/08/28 04:21:01;;;;;;;18.92;9.77;;;15.50;99.90;;;;;;6122535;23;20025;-69
2021/08/28 04:23:26;;;;;;;17.20;9.13;;;15.40;99.90;;;;;;6120910;23;20024;-69
2021/08/28 04:25:55;;;;;;;13.25;8.98;;;15.40;99.90;;;;;;6097254;23;20474;-70
2021/08/28 04:28:21;;;;;;;24.17;10.00;;;15.40;99.90;;;;;;6122359;23;20025;-69
2021/08/28 04:30:47;;;;;;;17.27;9.93;;;15.40;99.90;;;;;;6122478;23;20355;-70
2021/08/28 04:33:14;;;;;;;18.27;9.52;;;15.40;99.90;;;;;;6097028;23;20030;-70
2021/08/28 04:35:40;;;;;;;18.98;9.48;;;15.60;99.90;;;;;;6119949;23;20021;-69
2021/08/28 04:38:06;;;;;;;17.95;9.52;;;15.60;99.90;;;;;;6120258;23;20495;-68
2021/08/28 04:40:32;;;;;;;20.83;10.27;;;15.50;99.90;;;;;;6097402;23;20407;-69
2021/08/28 04:42:59;;;;;;;18.85;10.20;;;15.50;99.90;;;;;;6121404;23;20021;-69
2021/08/28 04:45:25;;;;;;;17.60;9.75;;;15.50;99.90;;;;;;6097213;23;20040;-69
2021/08/28 04:47:50;;;;;;;18.52;9.38;;;15.50;99.90;;;;;;6097970;23;20084;-69
2021/08/28 04:50:16;;;;;;;17.95;9.77;;;15.50;99.90;;;;;;6095976;23;20018;-70
2021/08/28 04:52:42;;;;;;;15.55;9.45;;;15.60;99.90;;;;;;6120987;23;20097;-69
2021/08/28 04:55:08;;;;;;;20.00;9.48;;;15.60;99.90;;;;;;6121188;23;20446;-69
2021/08/28 04:57:34;;;;;;;14.25;8.77;;;15.60;99.90;;;;;;6122089;23;20556;-69
2021/08/28 05:00:00;;;;;;;16.95;9.23;;;15.60;99.90;;;;;;6122635;23;20021;-68
2021/08/28 05:02:25;;;;;;;20.23;9.85;;;15.50;99.90;;;;;;6095771;23;20032;-69
2021/08/28 05:04:51;;;;;;;16.85;9.70;;;15.60;99.90;;;;;;6121301;23;20036;-69
2021/08/28 05:07:17;;;;;;;16.98;8.98;;;15.70;99.90;;;;;;6144211;23;20032;-70
2021/08/28 05:09:43;;;;;;;17.60;9.15;;;15.70;99.90;;;;;;6145897;23;20057;-69
2021/08/28 05:12:08;;;;;;;18.23;9.60;;;15.70;99.90;;;;;;6095473;23;20129;-70
2021/08/28 05:14:37;;;;;;;16.27;9.27;;;15.70;99.90;;;;;;6121717;23;20026;-69
2021/08/28 05:17:04;;;;;;;16.67;9.43;;;15.70;99.90;;;;;;6073686;23;20044;-69
2021/08/28 05:19:30;;;;;;;17.02;9.13;;;15.60;99.90;;;;;;6096563;23;20025;-69
2021/08/28 05:21:56;;;;;;;16.45;8.57;;;15.60;99.90;;;;;;6095087;23;20022;-69
2021/08/28 05:24:22;;;;;;;16.48;8.43;;;15.70;99.90;;;;;;6122240;23;20017;-68
2021/08/28 05:26:48;;;;;;;15.45;8.95;;;15.70;99.90;;;;;;6121538;23;20025;-68
2021/08/28 05:29:14;;;;;;;16.23;8.50;;;15.60;99.90;;;;;;6098705;23;20075;-69
2021/08/28 05:31:40;;;;;;;18.20;8.82;;;15.60;99.90;;;;;;6123328;23;20027;-69
2021/08/28 05:34:05;;;;;;;18.55;8.88;;;15.70;99.90;;;;;;6071308;23;20440;-69
2021/08/28 05:36:31;;;;;;;18.83;9.35;;;15.70;99.90;;;;;;6099237;23;20022;-69
2021/08/28 05:38:57;;;;;;;17.67;8.02;;;15.70;99.90;;;;;;6120310;23;20425;-69
2021/08/28 05:41:23;;;;;;;14.88;8.10;;;15.80;99.90;;;;;;6098725;23;20462;-69
2021/08/28 05:43:49;;;;;;;14.95;8.63;;;15.80;99.90;;;;;;6073027;23;20025;-68
2021/08/28 05:46:15;;;;;;;20.48;9.80;;;15.70;99.90;;;;;;6097408;23;20017;-69
2021/08/28 05:48:41;;;;;;;14.98;7.85;;;15.80;99.90;;;;;;6121660;23;20331;-69
2021/08/28 05:51:06;;;;;;;16.63;8.20;;;15.80;99.90;;;;;;6098184;23;20087;-69
2021/08/28 05:53:32;;;;;;;12.93;8.32;;;15.70;99.90;;;;;;6123134;23;20071;-69
2021/08/28 05:55:58;;;;;;;15.20;9.13;;;15.80;99.90;;;;;;6098823;23;20358;-69
2021/08/28 05:58:24;;;;;;;17.23;8.05;;;15.80;99.90;;;;;;6097784;23;20035;-69
2021/08/28 06:00:49;;;;;;;13.50;8.60;;;15.80;99.90;;;;;;6052807;23;20028;-69
2021/08/28 06:03:17;;;;;;;15.98;8.50;;;15.90;99.90;;;;;;6145733;23;20343;-69
2021/08/28 06:05:43;;;;;;;15.90;8.90;;;15.90;99.90;;;;;;6124024;23;20025;-69
2021/08/28 06:08:11;;;;;;;14.45;7.82;;;15.90;99.90;;;;;;6120220;23;20028;-69
2021/08/28 06:10:37;;;;;;;12.82;7.80;;;15.90;99.90;;;;;;6123711;23;20022;-69
2021/08/28 06:13:02;;;;;;;13.77;7.60;;;15.90;99.90;;;;;;6099432;23;20477;-69
2021/08/28 06:15:28;;;;;;;14.75;8.02;;;15.90;99.90;;;;;;6098485;23;20537;-68
2021/08/28 06:17:55;;;;;;;15.10;8.65;;;15.90;99.90;;;;;;6123708;23;20052;-68
2021/08/28 06:20:21;;;;;;;13.90;7.82;;;15.80;99.90;;;;;;6120162;23;20358;-68
2021/08/28 06:22:46;;;;;;;17.40;8.93;;;15.90;99.90;;;;;;6124653;23;20027;-68
2021/08/28 06:25:15;;;;;;;17.52;8.48;;;15.90;99.90;;;;;;6124028;23;20410;-68
2021/08/28 06:27:41;;;;;;;16.10;8.73;;;15.90;99.90;;;;;;6098156;23;20025;-69
2021/08/28 06:30:07;;;;;;;15.68;7.90;;;15.90;99.90;;;;;;6122742;23;20018;-69
2021/08/28 06:32:33;;;;;;;16.13;7.63;;;15.90;99.90;;;;;;6076279;23;20021;-69
2021/08/28 06:35:01;;;;;;;16.65;8.35;;;16.00;99.90;;;;;;6075138;23;20506;-69
2021/08/28 06:37:27;;;;;;;14.82;7.93;;;16.00;99.90;;;;;;6121693;23;20021;-69
2021/08/28 06:39:53;;;;;;;14.80;7.75;;;16.00;99.90;;;;;;6120865;23;20442;-69
2021/08/28 06:42:19;;;;;;;14.52;7.68;;;16.00;99.90;;;;;;6122365;23;20025;-69
2021/08/28 06:44:44;;;;;;;15.82;7.88;;;16.00;99.90;;;;;;6122238;23;20419;-68
2021/08/28 06:47:10;;;;;;;14.30;8.32;;;16.00;99.90;;;;;;6123545;23;20049;-68
2021/08/28 06:49:36;;;;;;;19.48;7.38;;;16.10;99.90;;;;;;6122157;23;20088;-69
2021/08/28 06:52:02;;;;;;;12.85;7.15;;;16.10;99.90;;;;;;6098738;23;20100;-68
2021/08/28 06:54:28;;;;;;;15.90;7.35;;;16.20;99.90;;;;;;6096582;23;20373;-69
2021/08/28 06:56:53;;;;;;;14.13;7.53;;;16.20;99.90;;;;;;6123287;23;20068;-70
2021/08/28 06:59:20;;;;;;;11.20;7.00;;;16.20;99.90;;;;;;6071673;23;20022;-69
2021/08/28 07:01:46;;;;;;;14.88;6.97;;;16.30;99.90;;;;;;6118158;23;20033;-69
2021/08/28 07:04:12;;;;;;;12.35;6.35;;;16.30;99.90;;;;;;6092397;23;20021;-69
2021/08/28 07:06:37;;;;;;;11.25;6.40;;;16.40;99.90;;;;;;6093376;23;20037;-68
2021/08/28 07:09:06;;;;;;;13.20;7.20;;;16.50;99.90;;;;;;6117580;23;20090;-69
2021/08/28 07:11:32;;;;;;;14.68;6.50;;;16.50;99.90;;;;;;6093015;23;20132;-69
2021/08/28 07:13:57;;;;;;;11.07;6.32;;;16.50;99.90;;;;;;6119396;23;20467;-69
2021/08/28 07:16:25;;;;;;;10.85;6.53;;;16.50;99.90;;;;;;6093318;23;20025;-69
2021/08/28 07:18:51;;;;;;;11.30;6.28;;;16.50;99.90;;;;;;6092101;23;20029;-69
2021/08/28 07:21:20;;;;;;;9.43;6.40;;;16.60;99.90;;;;;;6069088;23;20033;-69
2021/08/28 07:23:47;;;;;;;12.23;6.95;;;16.60;99.90;;;;;;6093054;23;20022;-68
2021/08/28 07:26:17;;;;;;;12.48;6.88;;;16.50;99.90;;;;;;6116498;23;20051;-68
2021/08/28 07:28:44;;;;;;;9.35;6.05;;;16.50;99.90;;;;;;6091759;23;20025;-69
2021/08/28 07:31:10;;;;;;;10.48;6.70;;;16.40;99.90;;;;;;6118402;23;20025;-81
2021/08/28 07:33:35;;;;;;;10.07;6.30;;;16.40;99.90;;;;;;6090445;23;20029;-82
2021/08/28 07:36:02;;;;;;;8.82;6.78;;;16.50;99.90;;;;;;6116918;23;20157;-81
2021/08/28 07:38:27;;;;;;;10.15;6.60;;;16.70;99.90;;;;;;6115628;23;20057;-79
2021/08/28 07:40:53;;;;;;;11.02;6.30;;;16.90;99.90;;;;;;6116958;23;20026;-81
2021/08/28 07:43:19;;;;;;;10.93;5.85;;;17.10;99.90;;;;;;6093911;23;20053;-79
2021/08/28 07:45:45;;;;;;;8.32;5.63;;;17.30;99.90;;;;;;6092795;23;20056;-69
2021/08/28 07:48:11;;;;;;;10.77;5.40;;;17.30;99.90;;;;;;6115432;23;20053;-69
2021/08/28 07:50:36;;;;;;;13.23;5.90;;;17.30;99.90;;;;;;6117544;23;20017;-70
2021/08/28 07:53:02;;;;;;;9.85;5.63;;;17.20;99.90;;;;;;6118132;23;20022;-69
2021/08/28 07:55:28;;;;;;;13.25;6.22;;;17.20;99.90;;;;;;6114451;23;20355;-69
2021/08/28 07:57:54;;;;;;;11.05;5.30;;;17.20;99.90;;;;;;6043553;23;20430;-69
2021/08/28 08:00:20;;;;;;;9.15;5.18;;;17.30;99.90;;;;;;6067491;23;20633;-69
2021/08/28 08:02:46;;;;;;;11.20;4.80;;;17.60;99.90;;;;;;6117035;23;20068;-69
2021/08/28 08:05:12;;;;;;;9.77;5.15;;;17.70;99.90;;;;;;6114740;23;20037;-69
2021/08/28 08:07:38;;;;;;;10.45;4.53;;;17.90;99.90;;;;;;6117645;23;20022;-69
2021/08/28 08:10:07;;;;;;;8.77;4.32;;;18.00;99.90;;;;;;6113882;23;20029;-69
2021/08/28 08:12:34;;;;;;;6.57;4.13;;;18.10;99.90;;;;;;6092525;23;20022;-69
2021/08/28 08:15:00;;;;;;;8.88;4.55;;;18.30;99.90;;;;;;6117265;23;20351;-68
2021/08/28 08:17:26;;;;;;;9.27;4.97;;;18.40;99.90;;;;;;6092156;23;20026;-69
2021/08/28 08:19:52;;;;;;;11.40;4.45;;;18.50;99.90;;;;;;6092271;23;20049;-69
2021/08/28 08:22:18;;;;;;;8.85;4.20;;;18.50;99.90;;;;;;6092542;23;20022;-69
2021/08/28 08:24:44;;;;;;;9.18;4.03;;;18.60;98.70;;;;;;6116783;23;20169;-69
2021/08/28 08:27:10;;;;;;;9.52;4.70;;;18.70;98.30;;;;;;6117314;23;20398;-69
2021/08/28 08:29:36;;;;;;;8.18;3.70;;;18.70;98.70;;;;;;6065964;23;20109;-69
2021/08/28 08:32:02;;;;;;;8.50;4.20;;;18.60;97.60;;;;;;6117034;23;20061;-69
2021/08/28 08:34:55;;;;;;;7.93;3.90;;;18.40;97.20;;;;;;6117091;23;20025;-69
2021/08/28 08:37:21;;;;;;;7.15;3.67;;;18.10;97.50;;;;;;6090270;23;20029;-69
2021/08/28 08:39:47;;;;;;;9.32;3.78;;;17.90;97.70;;;;;;6092559;23;20022;-71
2021/08/28 08:42:14;;;;;;;9.23;4.25;;;17.80;98.10;;;;;;6092985;23;20088;-68
2021/08/28 08:44:41;;;;;;;8.38;3.45;;;17.70;98.80;;;;;;6092679;23;20036;-68
2021/08/28 08:47:08;;;;;;;7.60;3.20;;;17.60;99.00;;;;;;6093956;23;20501;-69
2021/08/28 08:49:34;;;;;;;7.20;3.60;;;17.60;98.80;;;;;;6091420;23;20332;-69
2021/08/28 08:52:01;;;;;;;8.05;3.60;;;17.70;99.00;;;;;;6092276;23;20080;-69
2021/08/28 08:54:27;;;;;;;7.72;3.65;;;17.90;98.60;;;;;;6091221;23;20022;-70
2021/08/28 08:56:53;;;;;;;5.82;3.20;;;18.20;98.50;;;;;;6092453;23;20354;-68
2021/08/28 08:59:19;;;;;;;7.32;3.50;;;18.40;96.90;;;;;;6115400;23;20459;-69
2021/08/28 09:01:45;;;;;;;5.93;3.20;;;18.50;96.50;;;;;;6116788;23;20081;-69
2021/08/28 09:04:12;;;;;;;5.82;3.35;;;18.50;95.60;;;;;;6092748;23;20018;-81
2021/08/28 09:06:39;;;;;;;5.47;3.33;;;18.40;96.30;;;;;;6114054;23;20029;-69
2021/08/28 09:09:05;;;;;;;6.22;3.03;;;18.20;96.70;;;;;;6115864;23;20487;-70
2021/08/28 09:11:31;;;;;;;7.65;3.33;;;18.20;96.30;;;;;;6115448;23;20029;-69
2021/08/28 09:14:16;;;;;;;7.70;3.20;;;18.20;97.00;;;;;;6092846;23;20111;-69
2021/08/28 09:16:41;;;;;;;6.15;3.10;;;18.20;97.40;;;;;;6114349;23;20022;-68
2021/08/28 09:19:07;;;;;;;10.82;3.25;;;18.40;97.20;;;;;;6115508;23;20042;-70
2021/08/28 09:21:34;;;;;;;6.07;3.30;;;18.40;97.60;;;;;;6069281;23;20029;-69
2021/08/28 09:24:06;;;;;;;6.68;3.00;;;18.40;97.60;;;;;;6069985;23;20033;-69
2021/08/28 09:26:44;;;;;;;7.28;3.00;;;18.40;97.50;;;;;;6094150;23;20029;-68
2021/08/28 09:29:12;;;;;;;7.18;3.10;;;18.50;96.10;;;;;;6116596;23;20033;-69
2021/08/28 09:31:50;;;;;;;6.85;2.90;;;18.60;95.90;;;;;;6117506;23;20032;-70
2021/08/28 09:34:25;;;;;;;5.85;2.72;;;18.80;95.50;;;;;;6117906;23;20346;-69
2021/08/28 09:36:59;;;;;;;5.80;2.40;;;19.00;94.10;;;;;;6118500;23;20587;-69
2021/08/28 09:39:40;;;;;;;8.70;2.60;;;19.10;94.20;;;;;;6117497;23;20387;-68
2021/08/28 09:42:07;;;;;;;5.55;2.45;;;19.20;94.30;;;;;;6095013;23;20025;-69
2021/08/28 09:44:42;;;;;;;4.93;2.20;;;19.30;93.00;;;;;;6093366;23;20108;-80
2021/08/28 09:47:18;;;;;;;5.18;2.70;;;19.10;92.50;;;;;;6118658;23;20088;-78
2021/08/28 09:49:46;;;;;;;8.93;2.83;;;18.90;92.40;;;;;;6093920;23;20022;-80
2021/08/28 09:52:18;;;;;;;6.47;2.53;;;18.70;93.60;;;;;;6068103;23;20026;-69
2021/08/28 09:54:44;;;;;;;5.55;2.50;;;18.50;93.80;;;;;;6116405;23;20192;-68
2021/08/28 09:57:10;;;;;;;5.32;2.53;;;18.50;94.30;;;;;;6118651;23;20028;-68
2021/08/28 09:59:39;;;;;;;4.68;2.40;;;18.60;94.50;;;;;;6093192;23;20060;-69
2021/08/28 10:02:07;;;;;;;6.45;2.60;;;18.60;93.90;;;;;;6117880;23;20033;-70
2021/08/28 10:04:52;;;;;;;6.43;2.13;;;18.50;94.00;;;;;;6118203;23;20029;-68
2021/08/28 10:07:29;;;;;;;6.28;2.63;;;18.50;94.10;;;;;;6095392;23;20018;-68
2021/08/28 10:09:58;;;;;;;8.55;2.75;;;18.40;94.70;;;;;;6116291;23;20470;-67
2021/08/28 10:12:24;;;;;;;4.85;2.05;;;18.30;95.00;;;;;;6117788;23;20298;-69
2021/08/28 10:14:55;;;;;;;6.40;2.20;;;18.30;95.40;;;;;;6119406;23;20019;-69
2021/08/28 10:17:23;;;;;;;4.50;2.50;;;18.30;95.40;;;;;;6092702;23;20018;-69
2021/08/28 10:19:51;;;;;;;5.75;2.40;;;18.30;95.20;;;;;;6119176;23;20026;-69
2021/08/28 10:22:24;;;;;;;6.50;2.90;;;18.30;95.60;;;;;;6089981;23;20073;-70
2021/08/28 10:24:55;;;;;;;9.23;2.50;;;18.40;95.50;;;;;;6093780;23;20037;-70
2021/08/28 10:27:22;;;;;;;7.85;2.70;;;18.40;95.20;;;;;;6091115;23;20200;-69
2021/08/28 10:29:48;;;;;;;8.52;2.63;;;18.50;95.70;;;;;;6070414;23;20033;-68
2021/08/28 10:32:14;;;;;;;9.77;2.40;;;18.50;95.30;;;;;;6117409;23;20018;-69
2021/08/28 10:34:40;;;;;;;6.75;2.42;;;18.60;95.50;;;;;;6094105;23;20455;-68
2021/08/28 10:37:06;;;;;;;7.43;2.40;;;18.70;95.10;;;;;;6068129;23;20350;-69
2021/08/28 10:39:37;;;;;;;4.68;2.05;;;18.80;94.90;;;;;;6092289;23;20053;-69
2021/08/28 10:42:07;;;;;;;6.35;2.42;;;18.80;94.90;;;;;;6118473;23;20126;-69
2021/08/28 10:44:34;;;;;;;4.77;1.80;;;18.80;94.90;;;;;;6091396;23;20022;-69
2021/08/28 10:47:13;;;;;;;6.22;2.00;;;18.80;94.70;;;;;;6117467;23;20266;-69
2021/08/28 10:49:52;;;;;;;6.30;1.90;;;18.90;94.00;;;;;;6118224;23;20033;-69
2021/08/28 10:52:26;;;;;;;5.88;1.92;;;18.90;94.60;;;;;;6093144;23;20029;-68
2021/08/28 10:54:56;;;;;;;5.20;1.70;;;18.80;93.80;;;;;;6118613;23;20025;-69
2021/08/28 10:57:28;;;;;;;5.97;2.30;;;18.60;94.50;;;;;;6093727;23;20069;-69
2021/08/28 11:00:15;;;;;;;5.07;2.13;;;18.50;95.20;;;;;;6095474;23;20057;-70
2021/08/28 11:02:48;;;;;;;7.05;1.90;;;18.40;95.70;;;;;;6096539;23;20025;-69
2021/08/28 11:05:19;;;;;;;6.38;2.10;;;18.50;95.40;;;;;;6122770;23;20555;-69
2021/08/28 11:07:46;;;;;;;14.43;2.72;;;18.50;95.40;;;;;;6097493;23;20036;-69
2021/08/28 11:10:32;;;;;;;5.65;1.90;;;18.60;95.60;;;;;;6094898;23;20089;-69
2021/08/28 11:13:01;;;;;;;5.05;2.05;;;18.60;94.70;;;;;;6096747;23;20018;-69
2021/08/28 11:15:30;;;;;;;7.40;2.53;;;18.60;95.20;;;;;;6118926;23;20128;-69
2021/08/28 11:18:01;;;;;;;5.85;1.83;;;18.60;94.90;;;;;;6121483;23;20469;-70
2021/08/28 11:20:55;;;;;;;4.07;1.55;;;18.50;95.80;;;;;;6097766;23;20024;-69
2021/08/28 11:23:22;;;;;;;8.13;2.25;;;18.60;95.40;;;;;;6121861;23;20037;-69
2021/08/28 11:25:50;;;;;;;4.63;1.50;;;18.50;95.40;;;;;;6074606;23;20028;-69
2021/08/28 11:28:20;;;;;;;7.43;1.92;;;18.40;95.00;;;;;;6121112;23;20029;-68
2021/08/28 11:30:45;;;;;;;7.22;1.75;;;18.30;95.70;;;;;;6099238;23;20033;-68
2021/08/28 11:33:29;;;;;;;4.20;1.85;;;18.20;95.70;;;;;;6097038;23;20025;-68
2021/08/28 11:35:59;;;;;;;8.57;2.35;;;18.20;95.90;;;;;;6122665;23;20033;-69
2021/08/28 11:38:46;;;;;;;5.13;1.90;;;18.10;96.50;;;;;;6098120;23;20655;-69
2021/08/28 11:41:17;;;;;;;6.15;1.85;;;18.10;96.70;;;;;;6097038;23;20484;-69
2021/08/28 11:43:43;;;;;;;;;;;18.00;97.00;;;;;;6098466;23;20036;-69
2021/08/28 11:46:20;;;;;;;5.97;1.70;;;18.00;97.00;;;;;;6098060;23;19923;-78
2021/08/28 11:48:47;;;;;;;7.03;2.05;;;18.00;96.30;;;;;;6122352;23;20029;-69
2021/08/28 11:51:21;;;;;;;7.10;1.70;;;18.00;95.70;;;;;;6098541;23;20021;-69
2021/08/28 11:53:54;;;;;;;7.80;2.03;;;18.00;96.00;;;;;;6120929;23;20018;-68
2021/08/28 11:56:22;;;;;;;7.32;1.88;;;18.10;95.90;;;;;;6097725;23;20458;-69
2021/08/28 11:58:55;;;;;;;4.22;1.70;;;18.00;96.00;;;;;;6122091;23;20024;-70
2021/08/28 12:01:26;;;;;;;6.13;2.42;;;18.10;95.80;;;;;;6116458;23;20026;-69
2021/08/28 12:03:52;;;;;;;4.72;2.00;;;18.20;95.50;;;;;;6067950;23;20053;-69
2021/08/28 12:06:17;;;;;;;5.70;2.03;;;18.20;95.30;;;;;;6090534;23;20033;-69
2021/08/28 12:08:44;;;;;;;5.40;2.00;;;18.30;96.20;;;;;;6066078;23;20109;-69
2021/08/28 12:11:14;;;;;;;7.13;2.10;;;18.40;95.40;;;;;;6118019;23;20026;-69
2021/08/28 12:14:04;;;;;;;6.43;2.00;;;18.50;95.00;;;;;;6069550;23;20029;-70
2021/08/28 12:16:36;;;;;;;2.72;1.30;;;18.60;95.10;;;;;;6118575;23;20060;-69
2021/08/28 12:19:11;;;;;;;6.95;2.13;;;18.70;93.70;;;;;;6115215;23;20097;-69
2021/08/28 12:21:39;;;;;;;3.65;1.98;;;18.70;94.30;;;;;;6117225;23;20025;-69
2021/08/28 12:24:16;;;;;;;4.90;1.52;;;18.70;93.90;;;;;;6114344;23;20025;-69
2021/08/28 12:26:45;;;;;;;6.13;1.50;;;18.70;94.40;;;;;;6117295;23;20021;-69
2021/08/28 12:29:10;;;;;;;5.03;1.70;;;18.60;94.00;;;;;;6115281;23;20040;-69
2021/08/28 12:31:36;;;;;;;6.22;1.95;;;18.50;94.30;;;;;;6117211;23;20466;-69
2021/08/28 12:34:23;;;;;;;6.95;1.98;;;18.50;94.00;;;;;;6115175;23;20097;-71
2021/08/28 12:36:49;;;;;;;4.07;1.60;;;18.50;94.20;;;;;;6090375;23;20507;-69
2021/08/28 12:39:16;;;;;;;3.88;1.63;;;18.60;93.20;;;;;;6114759;23;20104;-69
2021/08/28 12:41:42;;;;;;;5.57;1.48;;;18.60;93.60;;;;;;6092945;23;20033;-69
2021/08/28 12:44:10;;;;;;;6.05;2.33;;;18.70;94.10;;;;;;6089740;23;20025;-69
2021/08/28 12:46:38;;;;;;;4.55;1.92;;;18.80;94.90;;;;;;6117967;23;20413;-70